Airfield :
LOGIN :

Register | Disclaimer

   EN    FR    IT 

 










Legend :    VFR   Marginal VFR   IFR   Intensive IFR   Very Intensive IFR
Visi :
Ceiling :
>= 8 km
>= 3000ft
5 to 8 km
1000 to 3000 ft
1500m to 5 km
500 to 1000 ft
800 to 1500m
200 to 500 ft
< 800m
< 200 ft
Symbols :   Thunderstorms  Fog  Heavy snow  Heavy precipitations  Wind > 20 kt
SIGMETs :     Misc.  Thunderstorms  Icing  Turbulence  Mountain Waves  Volcanic Ashes







- Airport Elevation : 768 ft
- IATA code : MXP


LIMC - Milano Malpensa

CURRENT METAR :
  • 232350Z 02003KT 0700 R35R/0225D R17L/0150N R35L/0225N FG NSC 02/02 Q1022 NOSIG

EXPIRED METARs :
  • 232320Z 01003KT 0700 R35R/0175D R17L/0175N R35L/0250N FG NSC 02/02 Q1022 NOSIG
  • 232250Z 02004KT 0500 R35R/0175N R17L/0125N R35L/0175N FG NSC 02/02 Q1022 NOSIG
  • 232220Z 01004KT 0700 R35R/0150N R17L/0175V0400N R35L/0150N FG NSC 03/03 Q1022 NOSIG
  • 232150Z 01003KT 1000 R35R/M0050V0150N R17L/0225N R35L/0175D BCFG NSC 03/03 Q1022 NOSIG
  • 232120Z 02005KT 1200 R35R/0450D R17L/0400V0900U R35L/0200D BCFG NSC 05/05 Q1022 NOSIG

TAF TAF LIMC
Valid from the 24 at 00:00 until the 25 at 06:00 UTC


232300Z 2400/2506 36005KT 0400 FG NSC
BECMG 2403/2406 2000 BR
TEMPO 2422/2506 RA
No reported NOTAMs for that airfield.



MET'MAP, your aeronautical weather chart ! - Copyright ORBIFLY December 2007 - Disclaimer

ORBIFLY MET'MAP TEAM :

Programming & Development : Alexandra Zaïnal
Concept & Development : Baudouin d'Aumeries
Co-Development & Prog : Marc-Olivier Méhu
Technical & hardware support : Manuel Goepfert

Contact : metmap@orbifly.com




SOURCES & CREDITS :

   NOAA